sensor_id;sensor_type;location;lat;lon;timestamp;pressure;altitude;pressure_sealevel;temperature;humidity
79645;BME280;69117;47.148;18.954;2023-05-07T00:00:43;100598.41;;;14.84;20.92
79645;BME280;69117;47.148;18.954;2023-05-07T00:03:44;100589.41;;;14.85;21.01
79645;BME280;69117;47.148;18.954;2023-05-07T00:06:46;100591.56;;;14.82;21.18
79645;BME280;69117;47.148;18.954;2023-05-07T00:09:48;100580.44;;;14.78;21.10
79645;BME280;69117;47.148;18.954;2023-05-07T00:12:49;100589.59;;;14.84;20.70
79645;BME280;69117;47.148;18.954;2023-05-07T00:15:51;100576.47;;;14.74;21.03
79645;BME280;69117;47.148;18.954;2023-05-07T00:18:53;100569.97;;;14.77;20.98
79645;BME280;69117;47.148;18.954;2023-05-07T00:21:55;100580.59;;;14.93;20.98
79645;BME280;69117;47.148;18.954;2023-05-07T00:24:58;100591.25;;;15.01;21.34
79645;BME280;69117;47.148;18.954;2023-05-07T00:27:59;100600.88;;;15.02;21.35
79645;BME280;69117;47.148;18.954;2023-05-07T00:31:05;100596.38;;;14.95;21.50
79645;BME280;69117;47.148;18.954;2023-05-07T00:34:06;100590.59;;;14.83;21.23
79645;BME280;69117;47.148;18.954;2023-05-07T00:37:08;100598.56;;;14.83;21.52
79645;BME280;69117;47.148;18.954;2023-05-07T00:40:10;100599.06;;;14.78;21.51
79645;BME280;69117;47.148;18.954;2023-05-07T00:43:12;100599.25;;;14.77;21.40
79645;BME280;69117;47.148;18.954;2023-05-07T00:46:14;100607.22;;;14.69;21.29
79645;BME280;69117;47.148;18.954;2023-05-07T00:49:18;100595.56;;;14.53;21.43
79645;BME280;69117;47.148;18.954;2023-05-07T00:52:21;100597.22;;;14.54;21.41
79645;BME280;69117;47.148;18.954;2023-05-07T00:55:26;100609.28;;;14.49;21.25
79645;BME280;69117;47.148;18.954;2023-05-07T00:58:28;100597.47;;;14.27;21.46
79645;BME280;69117;47.148;18.954;2023-05-07T01:01:31;100608.41;;;14.24;21.41
79645;BME280;69117;47.148;18.954;2023-05-07T01:04:33;100617.91;;;14.26;21.38
79645;BME280;69117;47.148;18.954;2023-05-07T01:07:36;100612.03;;;14.14;21.65
79645;BME280;69117;47.148;18.954;2023-05-07T01:10:38;100628.50;;;14.18;22.06
79645;BME280;69117;47.148;18.954;2023-05-07T01:13:44;100626.66;;;14.10;23.53
79645;BME280;69117;47.148;18.954;2023-05-07T01:16:47;100633.13;;;14.08;23.57
79645;BME280;69117;47.148;18.954;2023-05-07T01:19:49;100634.44;;;14.12;24.02
79645;BME280;69117;47.148;18.954;2023-05-07T01:22:51;100630.28;;;14.09;23.93
79645;BME280;69117;47.148;18.954;2023-05-07T01:25:54;100625.38;;;13.88;24.26
79645;BME280;69117;47.148;18.954;2023-05-07T01:28:56;100615.56;;;13.81;24.28
79645;BME280;69117;47.148;18.954;2023-05-07T01:31:59;100626.81;;;13.74;24.08
79645;BME280;69117;47.148;18.954;2023-05-07T01:35:02;100615.47;;;13.64;24.33
79645;BME280;69117;47.148;18.954;2023-05-07T01:38:07;100619.91;;;13.56;24.40
79645;BME280;69117;47.148;18.954;2023-05-07T01:41:10;100603.69;;;13.33;24.46
79645;BME280;69117;47.148;18.954;2023-05-07T01:44:13;100616.25;;;13.31;22.19
79645;BME280;69117;47.148;18.954;2023-05-07T01:47:16;100611.34;;;13.18;22.52
79645;BME280;69117;47.148;18.954;2023-05-07T01:50:19;100616.81;;;13.16;22.28
79645;BME280;69117;47.148;18.954;2023-05-07T01:53:22;100615.13;;;13.15;22.37
79645;BME280;69117;47.148;18.954;2023-05-07T01:56:24;100612.72;;;13.04;22.20
79645;BME280;69117;47.148;18.954;2023-05-07T01:59:26;100616.38;;;13.03;22.00
79645;BME280;69117;47.148;18.954;2023-05-07T02:02:28;100598.34;;;12.89;22.14
79645;BME280;69117;47.148;18.954;2023-05-07T02:05:29;100601.78;;;12.81;22.14
79645;BME280;69117;47.148;18.954;2023-05-07T02:08:31;100596.25;;;12.74;21.90
79645;BME280;69117;47.148;18.954;2023-05-07T02:11:33;100606.38;;;12.79;21.70
79645;BME280;69117;47.148;18.954;2023-05-07T02:14:34;100607.81;;;12.73;21.79
79645;BME280;69117;47.148;18.954;2023-05-07T02:17:39;100605.78;;;12.67;22.01
79645;BME280;69117;47.148;18.954;2023-05-07T02:20:59;100591.91;;;12.55;21.68
79645;BME280;69117;47.148;18.954;2023-05-07T02:24:00;100604.13;;;12.66;20.06
79645;BME280;69117;47.148;18.954;2023-05-07T02:27:02;100595.13;;;12.59;17.88
79645;BME280;69117;47.148;18.954;2023-05-07T02:30:05;100583.84;;;12.57;17.18
79645;BME280;69117;47.148;18.954;2023-05-07T02:33:06;100592.91;;;12.54;16.80
79645;BME280;69117;47.148;18.954;2023-05-07T02:36:10;100596.78;;;12.60;17.06
79645;BME280;69117;47.148;18.954;2023-05-07T02:39:13;100594.22;;;12.68;16.88
79645;BME280;69117;47.148;18.954;2023-05-07T02:42:15;100596.00;;;12.86;19.79
79645;BME280;69117;47.148;18.954;2023-05-07T02:45:16;100587.41;;;12.92;21.87
79645;BME280;69117;47.148;18.954;2023-05-07T02:48:18;100596.09;;;12.76;21.83
79645;BME280;69117;47.148;18.954;2023-05-07T02:51:21;100578.34;;;12.76;22.06
79645;BME280;69117;47.148;18.954;2023-05-07T02:54:26;100591.00;;;12.82;22.02
79645;BME280;69117;47.148;18.954;2023-05-07T02:57:27;100595.25;;;12.75;22.00
79645;BME280;69117;47.148;18.954;2023-05-07T03:00:29;100597.47;;;12.62;22.11
79645;BME280;69117;47.148;18.954;2023-05-07T03:03:31;100590.78;;;12.58;22.13
79645;BME280;69117;47.148;18.954;2023-05-07T03:06:32;100585.44;;;12.50;22.16
79645;BME280;69117;47.148;18.954;2023-05-07T03:09:34;100595.34;;;12.48;22.00
79645;BME280;69117;47.148;18.954;2023-05-07T03:12:35;100594.81;;;12.44;22.04
79645;BME280;69117;47.148;18.954;2023-05-07T03:15:37;100587.59;;;12.36;22.26
79645;BME280;69117;47.148;18.954;2023-05-07T03:18:39;100585.56;;;12.30;22.24
79645;BME280;69117;47.148;18.954;2023-05-07T03:21:40;100591.69;;;12.31;22.35
79645;BME280;69117;47.148;18.954;2023-05-07T03:24:42;100599.91;;;12.28;22.41
79645;BME280;69117;47.148;18.954;2023-05-07T03:27:44;100615.59;;;12.21;22.51
79645;BME280;69117;47.148;18.954;2023-05-07T03:30:45;100613.63;;;12.23;22.51
79645;BME280;69117;47.148;18.954;2023-05-07T03:36:53;100627.69;;;12.24;22.38
79645;BME280;69117;47.148;18.954;2023-05-07T03:39:54;100627.53;;;12.25;22.32
79645;BME280;69117;47.148;18.954;2023-05-07T03:42:56;100615.81;;;12.28;22.40
79645;BME280;69117;47.148;18.954;2023-05-07T03:45:58;100619.84;;;12.32;22.30
79645;BME280;69117;47.148;18.954;2023-05-07T03:49:00;100619.28;;;12.28;22.46
79645;BME280;69117;47.148;18.954;2023-05-07T03:52:01;100625.22;;;12.40;22.48
79645;BME280;69117;47.148;18.954;2023-05-07T03:55:03;100626.53;;;12.54;22.38
79645;BME280;69117;47.148;18.954;2023-05-07T03:58:05;100631.63;;;12.65;22.47
79645;BME280;69117;47.148;18.954;2023-05-07T04:01:06;100639.19;;;12.78;22.71
79645;BME280;69117;47.148;18.954;2023-05-07T04:04:08;100633.97;;;12.86;23.19
79645;BME280;69117;47.148;18.954;2023-05-07T04:07:10;100630.53;;;12.94;23.21
79645;BME280;69117;47.148;18.954;2023-05-07T04:10:12;100629.69;;;13.11;23.99
79645;BME280;69117;47.148;18.954;2023-05-07T04:13:14;100641.66;;;13.33;25.13
79645;BME280;69117;47.148;18.954;2023-05-07T04:16:16;100644.56;;;13.48;25.24
79645;BME280;69117;47.148;18.954;2023-05-07T04:19:18;100648.31;;;13.63;25.52
79645;BME280;69117;47.148;18.954;2023-05-07T04:22:19;100647.75;;;13.78;25.90
79645;BME280;69117;47.148;18.954;2023-05-07T04:25:21;100635.69;;;13.91;26.71
79645;BME280;69117;47.148;18.954;2023-05-07T04:28:23;100640.25;;;14.07;26.78
79645;BME280;69117;47.148;18.954;2023-05-07T04:31:25;100652.38;;;14.10;26.84
79645;BME280;69117;47.148;18.954;2023-05-07T04:34:27;100628.78;;;14.07;26.84
79645;BME280;69117;47.148;18.954;2023-05-07T04:37:28;100639.75;;;14.12;27.13
79645;BME280;69117;47.148;18.954;2023-05-07T04:40:30;100642.59;;;14.18;27.54
79645;BME280;69117;47.148;18.954;2023-05-07T04:43:32;100652.94;;;14.30;27.70
79645;BME280;69117;47.148;18.954;2023-05-07T04:46:34;100649.28;;;14.31;27.61
79645;BME280;69117;47.148;18.954;2023-05-07T04:49:37;100655.31;;;14.49;27.63
79645;BME280;69117;47.148;18.954;2023-05-07T04:52:39;100655.03;;;14.60;27.97
79645;BME280;69117;47.148;18.954;2023-05-07T04:55:41;100647.09;;;14.69;28.17
79645;BME280;69117;47.148;18.954;2023-05-07T04:58:42;100644.44;;;14.69;27.81
79645;BME280;69117;47.148;18.954;2023-05-07T05:01:44;100652.91;;;14.88;28.03
79645;BME280;69117;47.148;18.954;2023-05-07T05:04:46;100648.28;;;15.15;28.42
79645;BME280;69117;47.148;18.954;2023-05-07T05:07:47;100644.09;;;15.45;28.73
79645;BME280;69117;47.148;18.954;2023-05-07T05:10:49;100656.06;;;15.74;29.11
79645;BME280;69117;47.148;18.954;2023-05-07T05:13:51;100640.28;;;16.03;28.75
79645;BME280;69117;47.148;18.954;2023-05-07T05:16:53;100664.94;;;16.45;29.35
79645;BME280;69117;47.148;18.954;2023-05-07T05:19:54;100667.13;;;16.41;29.84
79645;BME280;69117;47.148;18.954;2023-05-07T05:22:56;100655.94;;;16.69;29.96
79645;BME280;69117;47.148;18.954;2023-05-07T05:25:58;100660.00;;;16.88;29.82
79645;BME280;69117;47.148;18.954;2023-05-07T05:29:00;100665.06;;;16.83;30.78
79645;BME280;69117;47.148;18.954;2023-05-07T05:32:02;100658.50;;;16.62;30.79
79645;BME280;69117;47.148;18.954;2023-05-07T05:35:04;100659.59;;;16.76;30.78
79645;BME280;69117;47.148;18.954;2023-05-07T05:38:05;100655.63;;;16.64;30.96
79645;BME280;69117;47.148;18.954;2023-05-07T05:41:07;100647.09;;;17.00;30.94
79645;BME280;69117;47.148;18.954;2023-05-07T05:44:09;100644.56;;;17.21;31.01
79645;BME280;69117;47.148;18.954;2023-05-07T05:47:10;100640.22;;;17.43;31.11
79645;BME280;69117;47.148;18.954;2023-05-07T05:50:12;100651.25;;;17.40;31.29
79645;BME280;69117;47.148;18.954;2023-05-07T05:53:14;100641.81;;;17.67;31.47
79645;BME280;69117;47.148;18.954;2023-05-07T05:56:16;100647.72;;;17.77;31.81
79645;BME280;69117;47.148;18.954;2023-05-07T05:59:17;100649.19;;;17.80;32.07
79645;BME280;69117;47.148;18.954;2023-05-07T06:02:19;100656.03;;;17.82;32.17
79645;BME280;69117;47.148;18.954;2023-05-07T06:05:21;100656.72;;;18.06;32.28
79645;BME280;69117;47.148;18.954;2023-05-07T06:08:23;100658.19;;;18.23;32.63
79645;BME280;69117;47.148;18.954;2023-05-07T06:11:26;100651.66;;;18.62;32.95
79645;BME280;69117;47.148;18.954;2023-05-07T06:14:27;100647.59;;;18.88;33.27
79645;BME280;69117;47.148;18.954;2023-05-07T06:17:29;100654.75;;;19.02;33.43
79645;BME280;69117;47.148;18.954;2023-05-07T06:20:31;100656.44;;;19.31;33.89
79645;BME280;69117;47.148;18.954;2023-05-07T06:23:33;100647.75;;;19.01;34.49
79645;BME280;69117;47.148;18.954;2023-05-07T06:26:35;100659.28;;;19.30;33.99
79645;BME280;69117;47.148;18.954;2023-05-07T06:29:37;100660.22;;;19.15;34.89
79645;BME280;69117;47.148;18.954;2023-05-07T06:32:40;100665.94;;;19.34;64.21
79645;BME280;69117;47.148;18.954;2023-05-07T06:35:42;100666.59;;;19.14;83.83
79645;BME280;69117;47.148;18.954;2023-05-07T06:38:44;100683.09;;;19.18;76.28
79645;BME280;69117;47.148;18.954;2023-05-07T06:41:45;100679.59;;;19.17;75.72
79645;BME280;69117;47.148;18.954;2023-05-07T06:44:47;100672.72;;;19.08;75.73
79645;BME280;69117;47.148;18.954;2023-05-07T06:47:48;100675.28;;;19.16;76.02
79645;BME280;69117;47.148;18.954;2023-05-07T06:50:50;100677.63;;;19.26;75.13
79645;BME280;69117;47.148;18.954;2023-05-07T06:53:52;100667.38;;;19.08;75.98
79645;BME280;69117;47.148;18.954;2023-05-07T06:56:53;100682.28;;;18.96;75.53
79645;BME280;69117;47.148;18.954;2023-05-07T06:59:55;100683.31;;;18.95;75.48
79645;BME280;69117;47.148;18.954;2023-05-07T07:02:57;100679.44;;;18.76;75.48
79645;BME280;69117;47.148;18.954;2023-05-07T07:05:59;100685.09;;;18.88;75.49
79645;BME280;69117;47.148;18.954;2023-05-07T07:09:00;100683.63;;;18.85;75.23
79645;BME280;69117;47.148;18.954;2023-05-07T07:12:02;100688.34;;;18.68;75.65
79645;BME280;69117;47.148;18.954;2023-05-07T07:15:04;100689.66;;;18.58;62.89
79645;BME280;69117;47.148;18.954;2023-05-07T07:18:06;100699.31;;;18.52;63.29
79645;BME280;69117;47.148;18.954;2023-05-07T07:21:08;100697.09;;;18.41;61.71
79645;BME280;69117;47.148;18.954;2023-05-07T07:24:09;100692.13;;;18.23;63.45
79645;BME280;69117;47.148;18.954;2023-05-07T07:27:11;100700.16;;;18.38;74.23
79645;BME280;69117;47.148;18.954;2023-05-07T07:30:12;100694.47;;;18.62;76.42
79645;BME280;69117;47.148;18.954;2023-05-07T07:33:14;100703.38;;;18.69;75.64
79645;BME280;69117;47.148;18.954;2023-05-07T07:36:16;100709.81;;;18.90;75.21
79645;BME280;69117;47.148;18.954;2023-05-07T07:39:17;100695.09;;;18.79;75.70
79645;BME280;69117;47.148;18.954;2023-05-07T07:42:19;100706.22;;;18.97;75.80
79645;BME280;69117;47.148;18.954;2023-05-07T07:45:21;100706.28;;;19.04;76.12
79645;BME280;69117;47.148;18.954;2023-05-07T07:48:22;100714.41;;;19.39;75.27
79645;BME280;69117;47.148;18.954;2023-05-07T07:51:24;100710.84;;;19.32;75.29
79645;BME280;69117;47.148;18.954;2023-05-07T07:54:26;100708.81;;;19.34;74.29
79645;BME280;69117;47.148;18.954;2023-05-07T07:57:27;100712.44;;;19.26;75.67
79645;BME280;69117;47.148;18.954;2023-05-07T08:00:29;100715.50;;;18.80;75.51
79645;BME280;69117;47.148;18.954;2023-05-07T08:03:30;100721.13;;;18.85;72.75
79645;BME280;69117;47.148;18.954;2023-05-07T08:06:34;100711.19;;;18.64;74.42
79645;BME280;69117;47.148;18.954;2023-05-07T08:09:37;100725.47;;;18.57;74.51
79645;BME280;69117;47.148;18.954;2023-05-07T08:12:38;100728.59;;;18.60;64.20
79645;BME280;69117;47.148;18.954;2023-05-07T08:15:40;100721.97;;;18.56;71.40
79645;BME280;69117;47.148;18.954;2023-05-07T08:18:42;100728.16;;;18.57;57.90
79645;BME280;69117;47.148;18.954;2023-05-07T08:21:44;100721.13;;;18.70;73.13
79645;BME280;69117;47.148;18.954;2023-05-07T08:24:45;100716.22;;;18.89;73.27
79645;BME280;69117;47.148;18.954;2023-05-07T08:27:47;100716.66;;;19.14;75.02
79645;BME280;69117;47.148;18.954;2023-05-07T08:30:49;100719.72;;;19.32;74.95
79645;BME280;69117;47.148;18.954;2023-05-07T08:33:50;100714.16;;;19.55;74.03
79645;BME280;69117;47.148;18.954;2023-05-07T08:36:52;100708.94;;;19.75;74.56
79645;BME280;69117;47.148;18.954;2023-05-07T08:39:54;100713.47;;;19.75;75.47
79645;BME280;69117;47.148;18.954;2023-05-07T08:42:56;100708.84;;;19.90;75.41
79645;BME280;69117;47.148;18.954;2023-05-07T08:46:00;100709.22;;;19.87;75.33
79645;BME280;69117;47.148;18.954;2023-05-07T08:49:03;100716.31;;;20.36;74.59
79645;BME280;69117;47.148;18.954;2023-05-07T08:52:05;100720.91;;;20.97;73.93
79645;BME280;69117;47.148;18.954;2023-05-07T08:55:10;100712.25;;;21.35;72.93
79645;BME280;69117;47.148;18.954;2023-05-07T08:58:12;100695.94;;;21.36;73.35
79645;BME280;69117;47.148;18.954;2023-05-07T09:01:16;100707.53;;;21.43;73.28
79645;BME280;69117;47.148;18.954;2023-05-07T09:04:18;100706.88;;;21.48;70.41
79645;BME280;69117;47.148;18.954;2023-05-07T09:07:20;100701.34;;;21.36;69.58
79645;BME280;69117;47.148;18.954;2023-05-07T09:10:21;100701.94;;;21.52;70.35
79645;BME280;69117;47.148;18.954;2023-05-07T09:13:23;100701.91;;;21.65;68.48
79645;BME280;69117;47.148;18.954;2023-05-07T09:16:25;100704.38;;;21.20;67.51
79645;BME280;69117;47.148;18.954;2023-05-07T09:19:27;100697.41;;;21.45;67.59
79645;BME280;69117;47.148;18.954;2023-05-07T09:22:31;100700.06;;;21.39;65.25
79645;BME280;69117;47.148;18.954;2023-05-07T09:25:35;100708.13;;;21.39;65.53
79645;BME280;69117;47.148;18.954;2023-05-07T09:28:43;100708.50;;;21.22;66.68
79645;BME280;69117;47.148;18.954;2023-05-07T09:31:45;100720.84;;;20.90;67.54
79645;BME280;69117;47.148;18.954;2023-05-07T09:34:46;100717.06;;;20.58;68.62
79645;BME280;69117;47.148;18.954;2023-05-07T09:37:48;100719.28;;;20.54;69.36
79645;BME280;69117;47.148;18.954;2023-05-07T09:41:09;100726.97;;;20.57;70.72
79645;BME280;69117;47.148;18.954;2023-05-07T09:44:10;100722.91;;;20.81;70.09
79645;BME280;69117;47.148;18.954;2023-05-07T09:47:20;100727.09;;;20.97;68.31
79645;BME280;69117;47.148;18.954;2023-05-07T09:50:36;100730.44;;;21.26;64.41
79645;BME280;69117;47.148;18.954;2023-05-07T09:53:40;100730.91;;;21.36;64.05
79645;BME280;69117;47.148;18.954;2023-05-07T09:56:44;100719.53;;;21.61;63.78
79645;BME280;69117;47.148;18.954;2023-05-07T09:59:46;100718.88;;;21.59;66.91
79645;BME280;69117;47.148;18.954;2023-05-07T10:02:52;100728.81;;;21.65;63.82
79645;BME280;69117;47.148;18.954;2023-05-07T10:05:54;100746.56;;;21.33;64.40
79645;BME280;69117;47.148;18.954;2023-05-07T10:08:56;100732.53;;;21.50;65.71
79645;BME280;69117;47.148;18.954;2023-05-07T10:11:59;100708.97;;;21.39;60.87
79645;BME280;69117;47.148;18.954;2023-05-07T10:15:01;100727.75;;;21.19;61.97
79645;BME280;69117;47.148;18.954;2023-05-07T10:18:06;100718.06;;;21.38;58.53
79645;BME280;69117;47.148;18.954;2023-05-07T10:21:11;100731.66;;;21.17;61.87
79645;BME280;69117;47.148;18.954;2023-05-07T10:24:21;100719.84;;;21.04;63.82
79645;BME280;69117;47.148;18.954;2023-05-07T10:27:26;100723.81;;;21.28;66.04
79645;BME280;69117;47.148;18.954;2023-05-07T10:30:56;100725.47;;;21.10;64.63
79645;BME280;69117;47.148;18.954;2023-05-07T10:34:11;100730.78;;;20.90;66.29
79645;BME280;69117;47.148;18.954;2023-05-07T10:37:15;100722.47;;;20.78;63.96
79645;BME280;69117;47.148;18.954;2023-05-07T10:40:17;100725.00;;;20.99;65.87
79645;BME280;69117;47.148;18.954;2023-05-07T10:43:20;100725.88;;;21.20;67.20
79645;BME280;69117;47.148;18.954;2023-05-07T10:46:22;100719.47;;;21.27;67.89
79645;BME280;69117;47.148;18.954;2023-05-07T10:49:24;100728.81;;;21.38;65.95
79645;BME280;69117;47.148;18.954;2023-05-07T10:52:26;100721.16;;;21.42;65.31
79645;BME280;69117;47.148;18.954;2023-05-07T10:55:28;100716.41;;;21.70;66.35
79645;BME280;69117;47.148;18.954;2023-05-07T10:58:31;100718.03;;;21.85;64.63
79645;BME280;69117;47.148;18.954;2023-05-07T11:08:21;100711.94;;;22.74;58.57
79645;BME280;69117;47.148;18.954;2023-05-07T11:11:45;100719.91;;;22.56;59.39
79645;BME280;69117;47.148;18.954;2023-05-07T11:14:48;100717.72;;;22.39;58.63
79645;BME280;69117;47.148;18.954;2023-05-07T11:17:58;100707.50;;;22.55;59.17
79645;BME280;69117;47.148;18.954;2023-05-07T11:21:00;100708.25;;;22.69;59.25
79645;BME280;69117;47.148;18.954;2023-05-07T11:24:04;100698.59;;;23.74;58.33
79645;BME280;69117;47.148;18.954;2023-05-07T11:27:06;100710.47;;;23.67;59.09
79645;BME280;69117;47.148;18.954;2023-05-07T11:30:08;100703.25;;;24.22;55.78
79645;BME280;69117;47.148;18.954;2023-05-07T11:33:11;100709.72;;;24.21;52.94
79645;BME280;69117;47.148;18.954;2023-05-07T11:36:12;100707.19;;;24.45;51.64
79645;BME280;69117;47.148;18.954;2023-05-07T11:39:28;100697.19;;;24.09;45.94
79645;BME280;69117;47.148;18.954;2023-05-07T11:42:32;100694.09;;;24.60;47.73
79645;BME280;69117;47.148;18.954;2023-05-07T11:45:35;100700.28;;;24.79;48.02
79645;BME280;69117;47.148;18.954;2023-05-07T11:48:37;100690.47;;;26.26;44.74
79645;BME280;69117;47.148;18.954;2023-05-07T11:51:39;100694.09;;;26.43;41.73
79645;BME280;69117;47.148;18.954;2023-05-07T11:54:50;100693.00;;;25.69;41.28
79645;BME280;69117;47.148;18.954;2023-05-07T11:57:52;100690.00;;;26.29;43.60
79645;BME280;69117;47.148;18.954;2023-05-07T12:00:54;100685.03;;;25.97;42.50
79645;BME280;69117;47.148;18.954;2023-05-07T12:03:56;100684.69;;;26.34;44.20
79645;BME280;69117;47.148;18.954;2023-05-07T12:06:58;100691.00;;;26.63;42.90
79645;BME280;69117;47.148;18.954;2023-05-07T12:09:59;100682.03;;;26.63;44.07
79645;BME280;69117;47.148;18.954;2023-05-07T12:13:20;100680.81;;;26.70;43.31
79645;BME280;69117;47.148;18.954;2023-05-07T12:16:23;100678.19;;;26.35;40.05
79645;BME280;69117;47.148;18.954;2023-05-07T12:19:24;100669.72;;;27.73;39.61
79645;BME280;69117;47.148;18.954;2023-05-07T12:22:26;100677.88;;;26.72;39.45
79645;BME280;69117;47.148;18.954;2023-05-07T12:25:42;100680.41;;;27.97;35.40
79645;BME280;69117;47.148;18.954;2023-05-07T12:28:52;100666.63;;;28.25;36.50
79645;BME280;69117;47.148;18.954;2023-05-07T12:31:54;100664.66;;;28.97;33.72
79645;BME280;69117;47.148;18.954;2023-05-07T12:34:56;100671.38;;;29.16;33.65
79645;BME280;69117;47.148;18.954;2023-05-07T12:37:59;100657.81;;;29.21;33.90
79645;BME280;69117;47.148;18.954;2023-05-07T12:41:01;100665.44;;;29.25;35.07
79645;BME280;69117;47.148;18.954;2023-05-07T12:44:04;100657.97;;;29.47;35.69
79645;BME280;69117;47.148;18.954;2023-05-07T12:47:06;100663.75;;;28.59;37.22
79645;BME280;69117;47.148;18.954;2023-05-07T12:50:08;100645.13;;;27.80;33.92
79645;BME280;69117;47.148;18.954;2023-05-07T12:53:10;100655.44;;;28.00;33.77
79645;BME280;69117;47.148;18.954;2023-05-07T12:56:15;100655.69;;;28.69;34.03
79645;BME280;69117;47.148;18.954;2023-05-07T12:59:17;100650.47;;;28.95;30.82
79645;BME280;69117;47.148;18.954;2023-05-07T13:02:18;100651.41;;;29.43;30.55
79645;BME280;69117;47.148;18.954;2023-05-07T13:05:21;100655.00;;;29.11;28.51
79645;BME280;69117;47.148;18.954;2023-05-07T13:08:34;100650.75;;;29.26;32.16
79645;BME280;69117;47.148;18.954;2023-05-07T13:11:36;100632.91;;;29.45;29.19
79645;BME280;69117;47.148;18.954;2023-05-07T13:14:37;100643.22;;;29.85;31.67
79645;BME280;69117;47.148;18.954;2023-05-07T13:17:39;100636.09;;;29.69;30.90
79645;BME280;69117;47.148;18.954;2023-05-07T13:20:40;100630.38;;;29.76;31.66
79645;BME280;69117;47.148;18.954;2023-05-07T13:23:42;100622.25;;;29.86;31.67
79645;BME280;69117;47.148;18.954;2023-05-07T13:26:44;100622.53;;;29.89;29.45
79645;BME280;69117;47.148;18.954;2023-05-07T13:29:46;100624.13;;;30.74;30.26
79645;BME280;69117;47.148;18.954;2023-05-07T13:32:48;100630.94;;;30.76;27.38
79645;BME280;69117;47.148;18.954;2023-05-07T13:35:50;100611.16;;;30.13;28.43
79645;BME280;69117;47.148;18.954;2023-05-07T13:38:52;100611.50;;;30.22;29.22
79645;BME280;69117;47.148;18.954;2023-05-07T13:41:53;100618.44;;;28.70;32.60
79645;BME280;69117;47.148;18.954;2023-05-07T13:44:55;100599.56;;;28.58;33.78
79645;BME280;69117;47.148;18.954;2023-05-07T13:47:58;100608.41;;;29.03;34.45
79645;BME280;69117;47.148;18.954;2023-05-07T13:50:59;100591.19;;;29.29;32.83
79645;BME280;69117;47.148;18.954;2023-05-07T13:54:01;100594.72;;;29.30;33.29
79645;BME280;69117;47.148;18.954;2023-05-07T13:57:03;100588.00;;;28.73;33.30
79645;BME280;69117;47.148;18.954;2023-05-07T14:00:05;100601.47;;;28.90;33.43
79645;BME280;69117;47.148;18.954;2023-05-07T14:03:07;100590.50;;;28.25;33.64
79645;BME280;69117;47.148;18.954;2023-05-07T14:06:09;100589.34;;;28.70;34.08
79645;BME280;69117;47.148;18.954;2023-05-07T14:09:10;100589.56;;;28.37;35.40
79645;BME280;69117;47.148;18.954;2023-05-07T14:12:14;100590.03;;;28.88;34.87
79645;BME280;69117;47.148;18.954;2023-05-07T14:15:16;100581.31;;;28.53;33.82
79645;BME280;69117;47.148;18.954;2023-05-07T14:18:17;100577.16;;;28.46;33.92
79645;BME280;69117;47.148;18.954;2023-05-07T14:21:19;100577.69;;;29.07;30.75
79645;BME280;69117;47.148;18.954;2023-05-07T14:24:21;100587.53;;;28.81;33.67
79645;BME280;69117;47.148;18.954;2023-05-07T14:27:38;100574.53;;;28.88;33.02
79645;BME280;69117;47.148;18.954;2023-05-07T14:30:40;100581.75;;;28.18;34.21
79645;BME280;69117;47.148;18.954;2023-05-07T14:33:41;100591.94;;;28.55;35.99
79645;BME280;69117;47.148;18.954;2023-05-07T14:36:43;100574.41;;;27.53;36.12
79645;BME280;69117;47.148;18.954;2023-05-07T14:39:45;100580.88;;;27.69;36.28
79645;BME280;69117;47.148;18.954;2023-05-07T14:42:50;100582.75;;;27.68;34.38
79645;BME280;69117;47.148;18.954;2023-05-07T14:45:52;100587.53;;;28.00;32.25
79645;BME280;69117;47.148;18.954;2023-05-07T14:48:53;100593.91;;;27.89;33.35
79645;BME280;69117;47.148;18.954;2023-05-07T14:51:57;100584.72;;;27.73;30.49
79645;BME280;69117;47.148;18.954;2023-05-07T14:55:00;100596.38;;;28.39;31.86
79645;BME280;69117;47.148;18.954;2023-05-07T14:58:01;100587.72;;;28.69;31.57
79645;BME280;69117;47.148;18.954;2023-05-07T15:01:03;100588.97;;;28.57;32.34
79645;BME280;69117;47.148;18.954;2023-05-07T15:04:05;100596.56;;;28.54;33.22
79645;BME280;69117;47.148;18.954;2023-05-07T15:07:07;100590.69;;;28.68;33.55
79645;BME280;69117;47.148;18.954;2023-05-07T15:10:09;100593.09;;;28.37;32.29
79645;BME280;69117;47.148;18.954;2023-05-07T15:13:11;100596.13;;;28.68;34.08
79645;BME280;69117;47.148;18.954;2023-05-07T15:16:16;100599.63;;;28.63;30.75
79645;BME280;69117;47.148;18.954;2023-05-07T15:19:18;100601.47;;;28.90;32.16
79645;BME280;69117;47.148;18.954;2023-05-07T15:22:19;100576.09;;;29.16;31.63
79645;BME280;69117;47.148;18.954;2023-05-07T15:25:23;100588.84;;;29.06;30.77
79645;BME280;69117;47.148;18.954;2023-05-07T15:28:24;100604.94;;;28.53;32.23
79645;BME280;69117;47.148;18.954;2023-05-07T15:31:26;100600.31;;;29.13;32.09
79645;BME280;69117;47.148;18.954;2023-05-07T15:34:28;100591.09;;;29.19;30.65
79645;BME280;69117;47.148;18.954;2023-05-07T15:37:33;100595.69;;;29.13;32.02
79645;BME280;69117;47.148;18.954;2023-05-07T15:40:35;100588.66;;;29.17;31.73
79645;BME280;69117;47.148;18.954;2023-05-07T15:43:45;100584.84;;;29.18;30.95
79645;BME280;69117;47.148;18.954;2023-05-07T15:46:47;100594.50;;;27.91;34.93
79645;BME280;69117;47.148;18.954;2023-05-07T15:49:48;100589.28;;;27.67;36.03
79645;BME280;69117;47.148;18.954;2023-05-07T15:52:50;100603.88;;;28.54;34.86